Time,TemperatureF,DewpointF,PressureIn,WindDirection,WindDirectionDegrees,WindSpeedMPH,WindSpeedGustMPH,Humidity,HourlyPrecipIn,Conditions,Clouds,dailyrainin,SoftwareType,DateUTC
2013-02-24 00:00:00,35.3,33.2,29.81,NW,315,0.0,2.0,92,0.00,,,-99.99,WeatherLink 5.7,2013-02-24 05:00:00,
2013-02-24 00:10:00,35.4,33.3,29.80,NW,315,1.0,4.0,92,0.00,,,-99.99,WeatherLink 5.7,2013-02-24 05:10:00,
2013-02-24 00:20:00,35.4,33.0,29.81,NW,315,1.0,3.0,91,0.00,,,-99.99,WeatherLink 5.7,2013-02-24 05:20:00,
2013-02-24 00:30:00,35.4,33.0,29.80,NW,315,0.0,4.0,91,0.00,,,-99.99,WeatherLink 5.7,2013-02-24 05:30:00,
2013-02-24 00:40:00,35.3,32.9,29.80,NNW,337,1.0,3.0,91,0.00,,,-99.99,WeatherLink 5.7,2013-02-24 05:40:00,
2013-02-24 00:50:00,35.3,32.9,29.80,NNW,337,0.0,2.0,91,0.00,,,-99.99,WeatherLink 5.7,2013-02-24 05:50:00,
2013-02-24 01:00:00,35.2,32.8,29.80,NNW,337,0.0,2.0,91,0.00,,,-99.99,WeatherLink 5.7,2013-02-24 06:00:00,
2013-02-24 01:10:00,35.2,32.8,29.80,NNW,337,0.0,3.0,91,0.00,,,-99.99,WeatherLink 5.7,2013-02-24 06:10:00,
2013-02-24 01:20:00,35.1,33.0,29.81,NW,315,1.0,3.0,92,0.00,,,-99.99,WeatherLink 5.7,2013-02-24 06:20:00,
2013-02-24 01:30:00,35.1,33.0,29.80,NW,315,1.0,2.0,92,0.00,,,-99.99,WeatherLink 5.7,2013-02-24 06:30:00,
2013-02-24 01:40:00,35.0,32.6,29.80,NW,315,1.0,4.0,91,0.00,,,-99.99,WeatherLink 5.7,2013-02-24 06:40:00,
2013-02-24 01:50:00,34.9,32.5,29.81,NW,315,1.0,3.0,91,0.00,,,-99.99,WeatherLink 5.7,2013-02-24 06:50:00,
2013-02-24 02:00:00,34.9,32.5,29.81,NW,315,1.0,4.0,91,0.00,,,-99.99,WeatherLink 5.7,2013-02-24 07:00:00,
2013-02-24 02:10:00,34.8,32.4,29.80,NW,315,2.0,5.0,91,0.00,,,-99.99,WeatherLink 5.7,2013-02-24 07:10:00,
2013-02-24 02:20:00,34.8,32.4,29.80,North,0,2.0,5.0,91,0.00,,,-99.99,WeatherLink 5.7,2013-02-24 07:20:00,
2013-02-24 02:30:00,34.7,32.3,29.80,NW,315,1.0,7.0,91,0.00,,,-99.99,WeatherLink 5.7,2013-02-24 07:30:00,
2013-02-24 02:40:00,34.6,32.0,29.79,NW,315,2.0,4.0,90,0.00,,,-99.99,WeatherLink 5.7,2013-02-24 07:40:00,
2013-02-24 02:50:00,34.6,32.0,29.80,NW,315,0.0,3.0,90,0.00,,,-99.99,WeatherLink 5.7,2013-02-24 07:50:00,
2013-02-24 03:00:00,34.6,32.0,29.79,NW,315,0.0,3.0,90,0.00,,,-99.99,WeatherLink 5.7,2013-02-24 08:00:00,
2013-02-24 03:10:00,34.5,31.9,29.79,NW,315,1.0,2.0,90,0.00,,,-99.99,WeatherLink 5.7,2013-02-24 08:10:00,
2013-02-24 03:20:00,34.4,31.8,29.79,NW,315,1.0,2.0,90,0.00,,,-99.99,WeatherLink 5.7,2013-02-24 08:20:00,
2013-02-24 03:30:00,34.4,31.8,29.79,NW,315,1.0,2.0,90,0.00,,,-99.99,WeatherLink 5.7,2013-02-24 08:30:00,
2013-02-24 03:40:00,34.3,31.9,29.78,NW,315,1.0,4.0,91,0.00,,,-99.99,WeatherLink 5.7,2013-02-24 08:40:00,
2013-02-24 03:50:00,34.3,31.9,29.78,WNW,292,1.0,4.0,91,0.00,,,-99.99,WeatherLink 5.7,2013-02-24 08:50:00,
2013-02-24 04:00:00,34.2,31.6,29.78,NW,315,2.0,3.0,90,0.00,,,-99.99,WeatherLink 5.7,2013-02-24 09:00:00,
2013-02-24 04:10:00,34.2,31.8,29.77,NW,315,2.0,4.0,91,0.00,,,-99.99,WeatherLink 5.7,2013-02-24 09:10:00,
2013-02-24 04:20:00,34.1,31.5,29.77,NW,315,2.0,4.0,90,0.00,,,-99.99,WeatherLink 5.7,2013-02-24 09:20:00,
2013-02-24 04:30:00,34.1,31.7,29.77,NNW,337,0.0,3.0,91,0.00,,,-99.99,WeatherLink 5.7,2013-02-24 09:30:00,
2013-02-24 04:40:00,34.0,31.6,29.77,NNW,337,1.0,5.0,91,0.00,,,-99.99,WeatherLink 5.7,2013-02-24 09:40:00,
2013-02-24 04:50:00,34.0,31.6,29.77,NW,315,3.0,6.0,91,0.00,,,-99.99,WeatherLink 5.7,2013-02-24 09:50:00,
2013-02-24 05:00:00,34.0,31.6,29.76,NW,315,3.0,6.0,91,0.00,,,-99.99,WeatherLink 5.7,2013-02-24 10:00:00,
2013-02-24 05:10:00,33.9,31.6,29.76,NW,315,2.0,4.0,91,0.00,,,-99.99,WeatherLink 5.7,2013-02-24 10:10:00,
2013-02-24 05:20:00,34.0,31.6,29.77,NW,315,3.0,7.0,91,0.00,,,-99.99,WeatherLink 5.7,2013-02-24 10:20:00,
2013-02-24 05:30:00,34.0,31.6,29.77,NW,315,2.0,5.0,91,0.00,,,-99.99,WeatherLink 5.7,2013-02-24 10:30:00,
2013-02-24 05:40:00,34.1,32.0,29.77,NW,315,2.0,4.0,92,0.00,,,-99.99,WeatherLink 5.7,2013-02-24 10:40:00,
2013-02-24 05:50:00,34.1,31.7,29.76,NW,315,1.0,5.0,91,0.00,,,-99.99,WeatherLink 5.7,2013-02-24 10:50:00,
2013-02-24 06:00:00,34.2,32.1,29.77,NW,315,0.0,2.0,92,0.00,,,-99.99,WeatherLink 5.7,2013-02-24 11:00:00,
2013-02-24 06:10:00,34.2,32.1,29.77,NW,315,0.0,4.0,92,0.00,,,-99.99,WeatherLink 5.7,2013-02-24 11:10:00,
2013-02-24 06:20:00,34.2,32.1,29.77,North,-999,0.0,0.0,92,0.00,,,-99.99,WeatherLink 5.7,2013-02-24 11:20:00,
2013-02-24 06:30:00,34.2,32.1,29.77,North,-999,0.0,0.0,92,0.00,,,-99.99,WeatherLink 5.7,2013-02-24 11:30:00,
2013-02-24 06:40:00,34.0,31.6,29.77,North,-999,0.0,0.0,91,0.00,,,-99.99,WeatherLink 5.7,2013-02-24 11:40:00,
2013-02-24 06:50:00,33.9,31.6,29.77,North,-999,0.0,0.0,91,0.00,,,-99.99,WeatherLink 5.7,2013-02-24 11:50:00,
2013-02-24 07:00:00,33.9,31.6,29.76,North,-999,0.0,0.0,91,0.00,,,-99.99,WeatherLink 5.7,2013-02-24 12:00:00,
2013-02-24 07:10:00,33.9,31.8,29.77,NNW,337,0.0,1.0,92,0.00,,,-99.99,WeatherLink 5.7,2013-02-24 12:10:00,
2013-02-24 07:20:00,34.0,31.9,29.77,North,-999,0.0,0.0,92,0.00,,,-99.99,WeatherLink 5.7,2013-02-24 12:20:00,
2013-02-24 07:30:00,34.1,32.0,29.77,NW,315,1.0,2.0,92,0.00,,,-99.99,WeatherLink 5.7,2013-02-24 12:30:00,
2013-02-24 07:40:00,34.3,32.2,29.76,NW,315,1.0,5.0,92,0.00,,,-99.99,WeatherLink 5.7,2013-02-24 12:40:00,
2013-02-24 07:50:00,34.4,32.3,29.77,NW,315,2.0,4.0,92,0.00,,,-99.99,WeatherLink 5.7,2013-02-24 12:50:00,
2013-02-24 08:00:00,34.7,32.6,29.78,NW,315,2.0,7.0,92,0.00,,,-99.99,WeatherLink 5.7,2013-02-24 13:00:00,
2013-02-24 08:10:00,34.9,32.8,29.79,NW,315,3.0,5.0,92,0.00,,,-99.99,WeatherLink 5.7,2013-02-24 13:10:00,
2013-02-24 08:20:00,35.3,33.2,29.79,NW,315,3.0,6.0,92,0.00,,,-99.99,WeatherLink 5.7,2013-02-24 13:20:00,
2013-02-24 08:31:00,35.8,33.7,29.78,NW,315,2.0,4.0,92,0.00,,,-99.99,WeatherLink 5.7,2013-02-24 13:31:00,
2013-02-24 08:40:00,36.2,34.1,29.78,NW,315,2.0,7.0,92,0.00,,,-99.99,WeatherLink 5.7,2013-02-24 13:40:00,
2013-02-24 08:50:00,36.5,34.1,29.78,NW,315,3.0,6.0,91,0.00,,,-99.99,WeatherLink 5.7,2013-02-24 13:50:00,
2013-02-24 09:00:00,36.6,33.9,29.78,NW,315,3.0,8.0,90,0.00,,,-99.99,WeatherLink 5.7,2013-02-24 14:00:00,
2013-02-24 09:10:00,36.8,34.1,29.77,NW,315,3.0,7.0,90,0.00,,,-99.99,WeatherLink 5.7,2013-02-24 14:10:00,
2013-02-24 09:20:00,37.3,34.4,29.78,NW,315,3.0,5.0,89,0.00,,,-99.99,WeatherLink 5.7,2013-02-24 14:20:00,
2013-02-24 09:30:00,37.7,34.5,29.78,WNW,292,3.0,7.0,88,0.00,,,-99.99,WeatherLink 5.7,2013-02-24 14:30:00,
2013-02-24 09:40:00,38.2,35.0,29.77,NW,315,3.0,8.0,88,0.00,,,-99.99,WeatherLink 5.7,2013-02-24 14:40:00,
2013-02-24 09:50:00,39.0,35.2,29.78,NW,315,3.0,6.0,86,0.00,,,-99.99,WeatherLink 5.7,2013-02-24 14:50:00,
2013-02-24 10:00:00,40.0,35.6,29.78,NNW,337,4.0,7.0,84,0.00,,,-99.99,WeatherLink 5.7,2013-02-24 15:00:00,
2013-02-24 10:10:00,40.8,35.4,29.77,NW,315,4.0,10.0,81,0.01,,,-99.99,WeatherLink 5.7,2013-02-24 15:10:00,
2013-02-24 10:20:00,41.7,36.3,29.77,NW,315,3.0,8.0,81,0.01,,,-99.99,WeatherLink 5.7,2013-02-24 15:20:00,
2013-02-24 10:30:00,42.7,36.3,29.78,NW,315,3.0,6.0,78,0.01,,,-99.99,WeatherLink 5.7,2013-02-24 15:30:00,
2013-02-24 10:41:00,42.8,35.8,29.78,NW,315,3.0,7.0,76,0.01,,,-99.99,WeatherLink 5.7,2013-02-24 15:41:00,
2013-02-24 10:51:00,43.8,36.0,29.79,NW,315,3.0,7.0,74,0.01,,,-99.99,WeatherLink 5.7,2013-02-24 15:51:00,
2013-02-24 11:01:00,44.5,35.7,29.78,NW,315,3.0,6.0,71,0.01,,,-99.99,WeatherLink 5.7,2013-02-24 16:01:00,
2013-02-24 11:11:00,43.2,34.8,29.79,NNW,337,3.0,9.0,72,0.00,,,-99.99,WeatherLink 5.7,2013-02-24 16:11:00,
2013-02-24 11:21:00,42.4,34.0,29.79,NW,315,4.0,10.0,72,0.00,,,-99.99,WeatherLink 5.7,2013-02-24 16:21:00,
2013-02-24 11:31:00,41.5,33.1,29.78,WNW,292,4.0,8.0,72,0.00,,,-99.99,WeatherLink 5.7,2013-02-24 16:31:00,
2013-02-24 11:41:00,41.3,32.2,29.79,NW,315,4.0,8.0,70,0.00,,,-99.99,WeatherLink 5.7,2013-02-24 16:41:00,
2013-02-24 11:51:00,41.7,31.5,29.78,NW,315,4.0,11.0,67,0.00,,,-99.99,WeatherLink 5.7,2013-02-24 16:51:00,
2013-02-24 12:01:00,42.5,31.9,29.78,NW,315,3.0,6.0,66,0.00,,,-99.99,WeatherLink 5.7,2013-02-24 17:01:00,
2013-02-24 12:11:00,44.1,33.1,29.77,NW,315,3.0,7.0,65,0.00,,,-99.99,WeatherLink 5.7,2013-02-24 17:11:00,
2013-02-24 12:21:00,43.8,32.0,29.78,NW,315,4.0,7.0,63,0.00,,,-99.99,WeatherLink 5.7,2013-02-24 17:21:00,
2013-02-24 12:31:00,42.9,31.6,29.78,NW,315,3.0,10.0,64,0.00,,,-99.99,WeatherLink 5.7,2013-02-24 17:31:00,
2013-02-24 12:41:00,42.4,31.5,29.77,NW,315,3.0,6.0,65,0.00,,,-99.99,WeatherLink 5.7,2013-02-24 17:41:00,
2013-02-24 12:51:00,42.1,31.2,29.77,NW,315,3.0,6.0,65,0.00,,,-99.99,WeatherLink 5.7,2013-02-24 17:51:00,
2013-02-24 13:01:00,41.9,31.0,29.77,NNW,337,3.0,6.0,65,0.00,,,-99.99,WeatherLink 5.7,2013-02-24 18:01:00,
2013-02-24 13:11:00,41.6,30.7,29.77,NW,315,3.0,9.0,65,0.00,,,-99.99,WeatherLink 5.7,2013-02-24 18:11:00,
2013-02-24 13:21:00,41.7,30.4,29.77,NNW,337,4.0,9.0,64,0.00,,,-99.99,WeatherLink 5.7,2013-02-24 18:21:00,
2013-02-24 13:31:00,41.9,30.2,29.77,NW,315,5.0,10.0,63,0.00,,,-99.99,WeatherLink 5.7,2013-02-24 18:31:00,
2013-02-24 13:41:00,42.1,30.0,29.77,NW,315,3.0,8.0,62,0.00,,,-99.99,WeatherLink 5.7,2013-02-24 18:41:00,
2013-02-24 13:51:00,41.9,29.8,29.78,NW,315,4.0,9.0,62,0.00,,,-99.99,WeatherLink 5.7,2013-02-24 18:51:00,
2013-02-24 14:01:00,41.5,29.4,29.78,NW,315,4.0,7.0,62,0.00,,,-99.99,WeatherLink 5.7,2013-02-24 19:01:00,
2013-02-24 14:11:00,41.2,29.5,29.77,NW,315,4.0,7.0,63,0.00,,,-99.99,WeatherLink 5.7,2013-02-24 19:11:00,
2013-02-24 14:21:00,40.9,29.3,29.78,NW,315,4.0,9.0,63,0.00,,,-99.99,WeatherLink 5.7,2013-02-24 19:21:00,
2013-02-24 14:31:00,40.4,29.2,29.77,NW,315,4.0,8.0,64,0.00,,,-99.99,WeatherLink 5.7,2013-02-24 19:31:00,
2013-02-24 14:41:00,40.1,29.3,29.77,NW,315,4.0,9.0,65,0.00,,,-99.99,WeatherLink 5.7,2013-02-24 19:41:00,
2013-02-24 14:51:00,39.7,29.3,29.78,NNW,337,4.0,9.0,66,0.00,,,-99.99,WeatherLink 5.7,2013-02-24 19:51:00,
2013-02-24 15:01:00,39.2,29.5,29.77,NW,315,3.0,7.0,68,0.00,,,-99.99,WeatherLink 5.7,2013-02-24 20:01:00,
2013-02-24 15:11:00,38.6,29.3,29.79,NW,315,4.0,8.0,69,0.00,,,-99.99,WeatherLink 5.7,2013-02-24 20:11:00,
2013-02-24 15:21:00,38.1,28.8,29.80,NW,315,4.0,10.0,69,0.00,,,-99.99,WeatherLink 5.7,2013-02-24 20:21:00,
2013-02-24 15:31:00,37.6,28.7,29.80,NW,315,4.0,9.0,70,0.00,,,-99.99,WeatherLink 5.7,2013-02-24 20:31:00,
2013-02-24 15:41:00,37.0,28.5,29.81,NW,315,5.0,10.0,71,0.00,,,-99.99,WeatherLink 5.7,2013-02-24 20:41:00,
2013-02-24 15:51:00,36.2,27.7,29.82,NW,315,5.0,11.0,71,0.00,,,-99.99,WeatherLink 5.7,2013-02-24 20:51:00,
2013-02-24 16:01:00,35.5,27.0,29.83,NW,315,5.0,10.0,71,0.00,,,-99.99,WeatherLink 5.7,2013-02-24 21:01:00,
2013-02-24 16:11:00,35.1,26.6,29.83,NW,315,4.0,9.0,71,0.00,,,-99.99,WeatherLink 5.7,2013-02-24 21:11:00,
2013-02-24 16:21:00,34.9,26.1,29.83,NW,315,5.0,12.0,70,0.00,,,-99.99,WeatherLink 5.7,2013-02-24 21:21:00,
2013-02-24 16:31:00,34.7,25.9,29.83,NW,315,5.0,10.0,70,0.00,,,-99.99,WeatherLink 5.7,2013-02-24 21:31:00,
2013-02-24 16:41:00,34.6,25.1,29.84,NW,315,5.0,11.0,68,0.00,,,-99.99,WeatherLink 5.7,2013-02-24 21:41:00,
2013-02-24 16:51:00,34.5,25.0,29.84,NW,315,4.0,10.0,68,0.00,,,-99.99,WeatherLink 5.7,2013-02-24 21:51:00,
2013-02-24 17:01:00,34.4,24.2,29.84,NW,315,3.0,7.0,66,0.00,,,-99.99,WeatherLink 5.7,2013-02-24 22:01:00,
2013-02-24 17:11:00,34.4,24.2,29.85,NW,315,2.0,6.0,66,0.00,,,-99.99,WeatherLink 5.7,2013-02-24 22:11:00,
2013-02-24 17:21:00,34.3,23.4,29.86,NNW,337,1.0,6.0,64,0.00,,,-99.99,WeatherLink 5.7,2013-02-24 22:21:00,
2013-02-24 17:31:00,34.0,23.1,29.86,NW,315,2.0,8.0,64,0.00,,,-99.99,WeatherLink 5.7,2013-02-24 22:31:00,
2013-02-24 17:41:00,33.8,23.3,29.87,West,270,0.0,3.0,65,0.00,,,-99.99,WeatherLink 5.7,2013-02-24 22:41:00,
2013-02-24 17:51:00,33.5,23.0,29.87,NW,315,2.0,6.0,65,0.00,,,-99.99,WeatherLink 5.7,2013-02-24 22:51:00,
2013-02-24 18:01:00,33.4,22.9,29.88,NW,315,1.0,4.0,65,0.00,,,-99.99,WeatherLink 5.7,2013-02-24 23:01:00,
2013-02-24 18:11:00,33.2,22.3,29.88,NW,315,3.0,6.0,64,0.00,,,-99.99,WeatherLink 5.7,2013-02-24 23:11:00,
2013-02-24 18:21:00,32.9,22.0,29.89,NNW,337,2.0,12.0,64,0.00,,,-99.99,WeatherLink 5.7,2013-02-24 23:21:00,
2013-02-24 18:31:00,32.7,21.9,29.89,NW,315,3.0,8.0,64,0.00,,,-99.99,WeatherLink 5.7,2013-02-24 23:31:00,
2013-02-24 18:41:00,32.5,21.7,29.89,NW,315,3.0,7.0,64,0.00,,,-99.99,WeatherLink 5.7,2013-02-24 23:41:00,
2013-02-24 18:51:00,32.4,21.9,29.90,NW,315,3.0,9.0,65,0.00,,,-99.99,WeatherLink 5.7,2013-02-24 23:51:00,
2013-02-24 19:01:00,32.3,21.8,29.91,NW,315,4.0,9.0,65,0.00,,,-99.99,WeatherLink 5.7,2013-02-25 00:01:00,
2013-02-24 19:11:00,32.1,21.7,29.92,NW,315,4.0,12.0,65,0.00,,,-99.99,WeatherLink 5.7,2013-02-25 00:11:00,
2013-02-24 19:21:00,32.0,21.9,29.92,NW,315,3.0,9.0,66,0.00,,,-99.99,WeatherLink 5.7,2013-02-25 00:21:00,
2013-02-24 19:31:00,31.7,21.6,29.93,NW,315,4.0,11.0,66,0.00,,,-99.99,WeatherLink 5.7,2013-02-25 00:31:00,
2013-02-24 19:41:00,31.6,21.2,29.93,NW,315,4.0,9.0,65,0.00,,,-99.99,WeatherLink 5.7,2013-02-25 00:41:00,
2013-02-24 19:51:00,31.6,21.5,29.93,NW,315,4.0,12.0,66,0.00,,,-99.99,WeatherLink 5.7,2013-02-25 00:51:00,
2013-02-24 20:01:00,31.4,21.3,29.93,NW,315,3.0,7.0,66,0.00,,,-99.99,WeatherLink 5.7,2013-02-25 01:01:00,
2013-02-24 20:11:00,31.1,21.4,29.93,NW,315,3.0,7.0,67,0.00,,,-99.99,WeatherLink 5.7,2013-02-25 01:11:00,
2013-02-24 20:21:00,31.0,21.0,29.93,NW,315,4.0,7.0,66,0.00,,,-99.99,WeatherLink 5.7,2013-02-25 01:21:00,
2013-02-24 20:31:00,30.8,21.1,29.94,WNW,292,4.0,8.0,67,0.00,,,-99.99,WeatherLink 5.7,2013-02-25 01:31:00,
2013-02-24 20:41:00,30.7,20.7,29.94,NW,315,4.0,8.0,66,0.00,,,-99.99,WeatherLink 5.7,2013-02-25 01:41:00,
2013-02-24 20:51:00,30.7,20.7,29.95,NW,315,3.0,8.0,66,0.00,,,-99.99,WeatherLink 5.7,2013-02-25 01:51:00,
2013-02-24 21:01:00,30.6,20.2,29.94,NW,315,3.0,6.0,65,0.00,,,-99.99,WeatherLink 5.7,2013-02-25 02:01:00,
2013-02-24 21:11:00,30.7,20.0,29.95,WNW,292,4.0,9.0,64,0.00,,,-99.99,WeatherLink 5.7,2013-02-25 02:11:00,
2013-02-24 21:21:00,30.6,19.9,29.95,NW,315,3.0,8.0,64,0.00,,,-99.99,WeatherLink 5.7,2013-02-25 02:21:00,
2013-02-24 21:31:00,30.5,20.1,29.95,NNW,337,3.0,7.0,65,0.00,,,-99.99,WeatherLink 5.7,2013-02-25 02:31:00,
2013-02-24 21:41:00,30.4,20.0,29.95,NW,315,3.0,8.0,65,0.00,,,-99.99,WeatherLink 5.7,2013-02-25 02:41:00,
2013-02-24 21:51:00,30.3,19.9,29.96,NW,315,3.0,7.0,65,0.00,,,-99.99,WeatherLink 5.7,2013-02-25 02:51:00,
2013-02-24 22:01:00,30.2,19.8,29.97,NW,315,2.0,5.0,65,0.00,,,-99.99,WeatherLink 5.7,2013-02-25 03:01:00,
2013-02-24 22:11:00,30.1,19.7,29.97,NW,315,3.0,7.0,65,0.00,,,-99.99,WeatherLink 5.7,2013-02-25 03:11:00,
2013-02-24 22:21:00,30.1,19.4,29.97,NW,315,4.0,8.0,64,0.00,,,-99.99,WeatherLink 5.7,2013-02-25 03:21:00,
2013-02-24 22:31:00,30.1,19.7,29.97,NW,315,4.0,7.0,65,0.00,,,-99.99,WeatherLink 5.7,2013-02-25 03:31:00,
2013-02-24 22:41:00,30.1,19.4,29.97,NW,315,4.0,7.0,64,0.00,,,-99.99,WeatherLink 5.7,2013-02-25 03:41:00,
2013-02-24 22:51:00,30.2,19.8,29.97,NW,315,3.0,7.0,65,0.00,,,-99.99,WeatherLink 5.7,2013-02-25 03:51:00,
2013-02-24 23:01:00,30.1,19.7,29.97,NW,315,3.0,6.0,65,0.00,,,-99.99,WeatherLink 5.7,2013-02-25 04:01:00,
2013-02-24 23:11:00,29.9,19.2,29.97,NW,315,3.0,9.0,64,0.00,,,-99.99,WeatherLink 5.7,2013-02-25 04:11:00,
2013-02-24 23:21:00,29.9,19.6,29.97,NW,315,3.0,6.0,65,0.00,,,-99.99,WeatherLink 5.7,2013-02-25 04:21:00,
2013-02-24 23:31:00,29.6,19.6,29.96,NW,315,3.0,7.0,66,0.00,,,-99.99,WeatherLink 5.7,2013-02-25 04:31:00,
2013-02-24 23:41:00,29.4,19.8,29.97,NW,315,2.0,5.0,67,0.00,,,-99.99,WeatherLink 5.7,2013-02-25 04:41:00,
2013-02-24 23:51:00,29.3,19.7,29.97,NW,315,3.0,6.0,67,0.00,,,-99.99,WeatherLink 5.7,2013-02-25 04:51:00,